sensor_id;sensor_type;location;lat;lon;timestamp;P1;durP1;ratioP1;P2;durP2;ratioP2
22320;SDS011;11328;53.928;18.522;2023-06-26T00:01:45;16.65;;;10.52;;
22320;SDS011;11328;53.928;18.522;2023-06-26T00:04:13;17.58;;;11.25;;
22320;SDS011;11328;53.928;18.522;2023-06-26T00:06:41;16.95;;;11.52;;
22320;SDS011;11328;53.928;18.522;2023-06-26T00:09:09;18.02;;;10.70;;
22320;SDS011;11328;53.928;18.522;2023-06-26T00:11:36;16.95;;;11.45;;
22320;SDS011;11328;53.928;18.522;2023-06-26T00:14:03;17.40;;;11.98;;
22320;SDS011;11328;53.928;18.522;2023-06-26T00:16:31;20.85;;;12.02;;
22320;SDS011;11328;53.928;18.522;2023-06-26T00:18:59;18.95;;;12.23;;
22320;SDS011;11328;53.928;18.522;2023-06-26T00:21:26;20.65;;;12.45;;
22320;SDS011;11328;53.928;18.522;2023-06-26T00:23:54;17.90;;;12.65;;
22320;SDS011;11328;53.928;18.522;2023-06-26T00:26:21;20.05;;;11.32;;
22320;SDS011;11328;53.928;18.522;2023-06-26T00:28:51;16.60;;;12.00;;
22320;SDS011;11328;53.928;18.522;2023-06-26T00:31:18;19.92;;;12.10;;
22320;SDS011;11328;53.928;18.522;2023-06-26T00:33:46;18.42;;;11.07;;
22320;SDS011;11328;53.928;18.522;2023-06-26T00:36:13;18.80;;;12.13;;
22320;SDS011;11328;53.928;18.522;2023-06-26T00:38:41;18.42;;;11.98;;
22320;SDS011;11328;53.928;18.522;2023-06-26T00:41:08;23.30;;;13.30;;
22320;SDS011;11328;53.928;18.522;2023-06-26T00:43:39;19.45;;;11.93;;
22320;SDS011;11328;53.928;18.522;2023-06-26T00:46:12;19.55;;;12.10;;
22320;SDS011;11328;53.928;18.522;2023-06-26T00:48:41;21.13;;;12.30;;
22320;SDS011;11328;53.928;18.522;2023-06-26T00:51:12;20.20;;;12.95;;
22320;SDS011;11328;53.928;18.522;2023-06-26T00:53:39;19.70;;;13.18;;
22320;SDS011;11328;53.928;18.522;2023-06-26T00:56:08;21.20;;;13.18;;
22320;SDS011;11328;53.928;18.522;2023-06-26T00:58:37;18.13;;;12.02;;
22320;SDS011;11328;53.928;18.522;2023-06-26T01:01:04;17.52;;;12.07;;
22320;SDS011;11328;53.928;18.522;2023-06-26T01:03:35;16.88;;;11.95;;
22320;SDS011;11328;53.928;18.522;2023-06-26T01:06:06;17.58;;;13.10;;
22320;SDS011;11328;53.928;18.522;2023-06-26T01:08:41;19.50;;;13.98;;
22320;SDS011;11328;53.928;18.522;2023-06-26T01:11:09;20.38;;;13.65;;
22320;SDS011;11328;53.928;18.522;2023-06-26T01:13:38;20.60;;;13.68;;
22320;SDS011;11328;53.928;18.522;2023-06-26T01:16:07;21.90;;;14.07;;
22320;SDS011;11328;53.928;18.522;2023-06-26T01:18:37;19.88;;;12.13;;
22320;SDS011;11328;53.928;18.522;2023-06-26T01:21:11;19.55;;;12.48;;
22320;SDS011;11328;53.928;18.522;2023-06-26T01:26:30;18.25;;;12.25;;
22320;SDS011;11328;53.928;18.522;2023-06-26T01:29:02;18.05;;;11.93;;
22320;SDS011;11328;53.928;18.522;2023-06-26T01:31:32;23.80;;;12.55;;
22320;SDS011;11328;53.928;18.522;2023-06-26T01:34:01;21.55;;;12.55;;
22320;SDS011;11328;53.928;18.522;2023-06-26T01:36:29;20.98;;;12.45;;
22320;SDS011;11328;53.928;18.522;2023-06-26T01:38:57;18.13;;;12.18;;
22320;SDS011;11328;53.928;18.522;2023-06-26T01:41:24;20.83;;;12.68;;
22320;SDS011;11328;53.928;18.522;2023-06-26T01:49:40;21.65;;;12.75;;
22320;SDS011;11328;53.928;18.522;2023-06-26T01:55:35;23.27;;;12.30;;
22320;SDS011;11328;53.928;18.522;2023-06-26T01:58:16;21.90;;;12.68;;
22320;SDS011;11328;53.928;18.522;2023-06-26T02:00:48;19.67;;;13.03;;
22320;SDS011;11328;53.928;18.522;2023-06-26T02:03:17;21.38;;;13.07;;
22320;SDS011;11328;53.928;18.522;2023-06-26T02:05:44;19.55;;;12.40;;
22320;SDS011;11328;53.928;18.522;2023-06-26T02:08:13;20.73;;;12.35;;
22320;SDS011;11328;53.928;18.522;2023-06-26T02:10:41;18.33;;;11.57;;
22320;SDS011;11328;53.928;18.522;2023-06-26T02:13:09;17.63;;;11.88;;
22320;SDS011;11328;53.928;18.522;2023-06-26T02:15:36;20.27;;;12.02;;
22320;SDS011;11328;53.928;18.522;2023-06-26T02:18:03;19.95;;;12.50;;
22320;SDS011;11328;53.928;18.522;2023-06-26T02:20:31;21.15;;;12.38;;
22320;SDS011;11328;53.928;18.522;2023-06-26T02:22:59;21.10;;;12.10;;
22320;SDS011;11328;53.928;18.522;2023-06-26T02:25:27;19.55;;;12.80;;
22320;SDS011;11328;53.928;18.522;2023-06-26T02:27:54;19.95;;;12.73;;
22320;SDS011;11328;53.928;18.522;2023-06-26T02:30:21;25.00;;;13.20;;
22320;SDS011;11328;53.928;18.522;2023-06-26T02:32:49;24.30;;;12.20;;
22320;SDS011;11328;53.928;18.522;2023-06-26T02:35:16;22.80;;;13.10;;
22320;SDS011;11328;53.928;18.522;2023-06-26T02:37:44;24.10;;;12.65;;
22320;SDS011;11328;53.928;18.522;2023-06-26T02:40:11;22.23;;;13.48;;
22320;SDS011;11328;53.928;18.522;2023-06-26T02:42:38;20.60;;;13.75;;
22320;SDS011;11328;53.928;18.522;2023-06-26T02:45:06;22.40;;;13.30;;
22320;SDS011;11328;53.928;18.522;2023-06-26T02:47:34;21.50;;;13.30;;
22320;SDS011;11328;53.928;18.522;2023-06-26T02:50:01;23.80;;;13.32;;
22320;SDS011;11328;53.928;18.522;2023-06-26T02:52:29;22.05;;;14.10;;
22320;SDS011;11328;53.928;18.522;2023-06-26T02:54:57;25.38;;;15.65;;
22320;SDS011;11328;53.928;18.522;2023-06-26T02:57:24;21.42;;;13.52;;
22320;SDS011;11328;53.928;18.522;2023-06-26T02:59:52;25.17;;;14.48;;
22320;SDS011;11328;53.928;18.522;2023-06-26T03:02:20;22.27;;;13.80;;
22320;SDS011;11328;53.928;18.522;2023-06-26T03:04:47;23.02;;;13.60;;
22320;SDS011;11328;53.928;18.522;2023-06-26T03:07:17;21.77;;;13.18;;
22320;SDS011;11328;53.928;18.522;2023-06-26T03:09:45;22.50;;;13.45;;
22320;SDS011;11328;53.928;18.522;2023-06-26T03:12:12;20.77;;;13.00;;
22320;SDS011;11328;53.928;18.522;2023-06-26T03:14:41;24.25;;;13.02;;
22320;SDS011;11328;53.928;18.522;2023-06-26T03:17:12;22.85;;;13.48;;
22320;SDS011;11328;53.928;18.522;2023-06-26T03:19:40;26.17;;;14.15;;
22320;SDS011;11328;53.928;18.522;2023-06-26T03:22:09;23.92;;;14.88;;
22320;SDS011;11328;53.928;18.522;2023-06-26T03:24:36;25.15;;;16.00;;
22320;SDS011;11328;53.928;18.522;2023-06-26T03:27:03;27.77;;;15.65;;
22320;SDS011;11328;53.928;18.522;2023-06-26T03:29:31;27.80;;;15.13;;
22320;SDS011;11328;53.928;18.522;2023-06-26T03:31:58;23.27;;;14.07;;
22320;SDS011;11328;53.928;18.522;2023-06-26T03:34:26;22.90;;;13.98;;
22320;SDS011;11328;53.928;18.522;2023-06-26T03:36:53;25.83;;;18.50;;
22320;SDS011;11328;53.928;18.522;2023-06-26T03:39:20;26.52;;;17.92;;
22320;SDS011;11328;53.928;18.522;2023-06-26T03:41:49;23.88;;;14.02;;
22320;SDS011;11328;53.928;18.522;2023-06-26T03:44:19;26.42;;;14.02;;
22320;SDS011;11328;53.928;18.522;2023-06-26T03:46:48;24.20;;;13.85;;
22320;SDS011;11328;53.928;18.522;2023-06-26T03:49:15;22.85;;;13.52;;
22320;SDS011;11328;53.928;18.522;2023-06-26T03:51:44;22.83;;;13.60;;
22320;SDS011;11328;53.928;18.522;2023-06-26T03:54:11;21.42;;;13.30;;
22320;SDS011;11328;53.928;18.522;2023-06-26T03:56:39;20.98;;;13.90;;
22320;SDS011;11328;53.928;18.522;2023-06-26T03:59:07;23.45;;;15.68;;
22320;SDS011;11328;53.928;18.522;2023-06-26T04:01:35;30.40;;;16.85;;
22320;SDS011;11328;53.928;18.522;2023-06-26T04:04:04;28.52;;;17.35;;
22320;SDS011;11328;53.928;18.522;2023-06-26T04:06:32;29.20;;;16.85;;
22320;SDS011;11328;53.928;18.522;2023-06-26T04:09:00;29.08;;;16.63;;
22320;SDS011;11328;53.928;18.522;2023-06-26T04:11:28;28.48;;;16.55;;
22320;SDS011;11328;53.928;18.522;2023-06-26T04:13:55;29.42;;;16.40;;
22320;SDS011;11328;53.928;18.522;2023-06-26T04:16:23;24.85;;;16.27;;
22320;SDS011;11328;53.928;18.522;2023-06-26T04:18:52;24.30;;;14.90;;
22320;SDS011;11328;53.928;18.522;2023-06-26T04:21:23;22.00;;;14.43;;
22320;SDS011;11328;53.928;18.522;2023-06-26T04:23:53;21.70;;;14.07;;
22320;SDS011;11328;53.928;18.522;2023-06-26T04:26:20;25.10;;;15.65;;
22320;SDS011;11328;53.928;18.522;2023-06-26T04:28:47;31.25;;;15.02;;
22320;SDS011;11328;53.928;18.522;2023-06-26T04:31:14;23.08;;;14.15;;
22320;SDS011;11328;53.928;18.522;2023-06-26T04:33:42;25.00;;;14.57;;
22320;SDS011;11328;53.928;18.522;2023-06-26T04:36:10;26.77;;;14.68;;
22320;SDS011;11328;53.928;18.522;2023-06-26T04:38:37;26.73;;;14.52;;
22320;SDS011;11328;53.928;18.522;2023-06-26T04:41:05;25.90;;;14.77;;
22320;SDS011;11328;53.928;18.522;2023-06-26T04:43:32;26.30;;;15.25;;
22320;SDS011;11328;53.928;18.522;2023-06-26T04:45:59;26.15;;;14.65;;
22320;SDS011;11328;53.928;18.522;2023-06-26T04:48:26;20.75;;;13.20;;
22320;SDS011;11328;53.928;18.522;2023-06-26T04:50:54;24.38;;;13.40;;
22320;SDS011;11328;53.928;18.522;2023-06-26T04:53:22;21.77;;;13.38;;
22320;SDS011;11328;53.928;18.522;2023-06-26T04:55:50;22.92;;;12.90;;
22320;SDS011;11328;53.928;18.522;2023-06-26T04:58:18;22.60;;;12.68;;
22320;SDS011;11328;53.928;18.522;2023-06-26T05:00:46;27.15;;;12.25;;
22320;SDS011;11328;53.928;18.522;2023-06-26T05:03:16;25.45;;;12.15;;
22320;SDS011;11328;53.928;18.522;2023-06-26T05:05:45;17.85;;;11.48;;
22320;SDS011;11328;53.928;18.522;2023-06-26T05:08:13;23.35;;;11.88;;
22320;SDS011;11328;53.928;18.522;2023-06-26T05:10:45;20.38;;;11.43;;
22320;SDS011;11328;53.928;18.522;2023-06-26T05:13:13;17.17;;;11.63;;
22320;SDS011;11328;53.928;18.522;2023-06-26T05:15:48;15.75;;;10.07;;
22320;SDS011;11328;53.928;18.522;2023-06-26T05:18:16;13.65;;;9.40;;
22320;SDS011;11328;53.928;18.522;2023-06-26T05:20:43;12.52;;;8.65;;
22320;SDS011;11328;53.928;18.522;2023-06-26T05:23:11;14.82;;;9.77;;
22320;SDS011;11328;53.928;18.522;2023-06-26T05:25:39;15.15;;;9.52;;
22320;SDS011;11328;53.928;18.522;2023-06-26T05:28:07;13.13;;;8.40;;
22320;SDS011;11328;53.928;18.522;2023-06-26T05:30:38;11.55;;;7.10;;
22320;SDS011;11328;53.928;18.522;2023-06-26T05:33:07;13.10;;;7.38;;
22320;SDS011;11328;53.928;18.522;2023-06-26T05:35:39;11.77;;;7.10;;
22320;SDS011;11328;53.928;18.522;2023-06-26T05:38:09;11.45;;;7.55;;
22320;SDS011;11328;53.928;18.522;2023-06-26T05:40:37;13.00;;;8.27;;
22320;SDS011;11328;53.928;18.522;2023-06-26T05:43:07;11.73;;;7.03;;
22320;SDS011;11328;53.928;18.522;2023-06-26T05:45:34;11.73;;;6.88;;
22320;SDS011;11328;53.928;18.522;2023-06-26T05:48:01;9.77;;;6.47;;
22320;SDS011;11328;53.928;18.522;2023-06-26T05:50:29;11.10;;;5.38;;
22320;SDS011;11328;53.928;18.522;2023-06-26T05:52:57;8.90;;;5.95;;
22320;SDS011;11328;53.928;18.522;2023-06-26T05:55:25;11.80;;;6.60;;
22320;SDS011;11328;53.928;18.522;2023-06-26T05:57:52;14.15;;;6.60;;
22320;SDS011;11328;53.928;18.522;2023-06-26T06:00:23;10.60;;;5.72;;
22320;SDS011;11328;53.928;18.522;2023-06-26T06:02:52;10.10;;;5.45;;
22320;SDS011;11328;53.928;18.522;2023-06-26T06:05:21;12.52;;;7.05;;
22320;SDS011;11328;53.928;18.522;2023-06-26T06:07:49;10.80;;;6.50;;
22320;SDS011;11328;53.928;18.522;2023-06-26T06:10:17;11.15;;;5.93;;
22320;SDS011;11328;53.928;18.522;2023-06-26T06:12:45;11.02;;;5.90;;
22320;SDS011;11328;53.928;18.522;2023-06-26T06:15:12;10.95;;;5.90;;
22320;SDS011;11328;53.928;18.522;2023-06-26T06:17:40;11.25;;;5.95;;
22320;SDS011;11328;53.928;18.522;2023-06-26T06:20:07;10.32;;;6.10;;
22320;SDS011;11328;53.928;18.522;2023-06-26T06:22:35;10.65;;;5.40;;
22320;SDS011;11328;53.928;18.522;2023-06-26T06:25:02;10.32;;;5.60;;
22320;SDS011;11328;53.928;18.522;2023-06-26T06:27:30;9.52;;;5.40;;
22320;SDS011;11328;53.928;18.522;2023-06-26T06:29:57;10.55;;;5.10;;
22320;SDS011;11328;53.928;18.522;2023-06-26T06:32:24;9.25;;;4.90;;
22320;SDS011;11328;53.928;18.522;2023-06-26T06:34:52;10.02;;;5.40;;
22320;SDS011;11328;53.928;18.522;2023-06-26T06:37:19;9.18;;;5.07;;
22320;SDS011;11328;53.928;18.522;2023-06-26T06:39:46;12.23;;;5.25;;
22320;SDS011;11328;53.928;18.522;2023-06-26T06:42:13;9.23;;;4.68;;
22320;SDS011;11328;53.928;18.522;2023-06-26T06:44:40;9.48;;;4.38;;
22320;SDS011;11328;53.928;18.522;2023-06-26T06:47:08;9.45;;;4.10;;
22320;SDS011;11328;53.928;18.522;2023-06-26T06:49:35;9.25;;;4.25;;
22320;SDS011;11328;53.928;18.522;2023-06-26T06:52:03;8.43;;;4.82;;
22320;SDS011;11328;53.928;18.522;2023-06-26T06:54:30;8.25;;;4.47;;
22320;SDS011;11328;53.928;18.522;2023-06-26T06:56:58;11.13;;;3.92;;
22320;SDS011;11328;53.928;18.522;2023-06-26T06:59:25;9.15;;;3.97;;
22320;SDS011;11328;53.928;18.522;2023-06-26T07:01:52;7.88;;;3.88;;
22320;SDS011;11328;53.928;18.522;2023-06-26T07:04:20;8.82;;;3.78;;
22320;SDS011;11328;53.928;18.522;2023-06-26T07:06:47;9.40;;;4.15;;
22320;SDS011;11328;53.928;18.522;2023-06-26T07:09:15;8.55;;;3.88;;
22320;SDS011;11328;53.928;18.522;2023-06-26T07:11:41;7.80;;;4.00;;
22320;SDS011;11328;53.928;18.522;2023-06-26T07:14:09;10.32;;;3.90;;
22320;SDS011;11328;53.928;18.522;2023-06-26T07:16:36;9.18;;;4.60;;
22320;SDS011;11328;53.928;18.522;2023-06-26T07:19:03;9.63;;;4.60;;
22320;SDS011;11328;53.928;18.522;2023-06-26T07:21:33;8.05;;;4.47;;
22320;SDS011;11328;53.928;18.522;2023-06-26T07:24:00;10.00;;;4.45;;
22320;SDS011;11328;53.928;18.522;2023-06-26T07:26:27;13.80;;;4.57;;
22320;SDS011;11328;53.928;18.522;2023-06-26T07:29:10;8.35;;;4.28;;
22320;SDS011;11328;53.928;18.522;2023-06-26T07:31:37;7.63;;;4.28;;
22320;SDS011;11328;53.928;18.522;2023-06-26T07:34:04;9.15;;;4.32;;
22320;SDS011;11328;53.928;18.522;2023-06-26T07:36:31;7.93;;;4.50;;
22320;SDS011;11328;53.928;18.522;2023-06-26T07:38:59;7.65;;;3.90;;
22320;SDS011;11328;53.928;18.522;2023-06-26T07:41:26;7.68;;;4.00;;
22320;SDS011;11328;53.928;18.522;2023-06-26T07:43:55;6.60;;;4.10;;
22320;SDS011;11328;53.928;18.522;2023-06-26T07:46:24;6.47;;;3.97;;
22320;SDS011;11328;53.928;18.522;2023-06-26T07:48:51;8.65;;;4.22;;
22320;SDS011;11328;53.928;18.522;2023-06-26T07:51:18;7.03;;;4.10;;
22320;SDS011;11328;53.928;18.522;2023-06-26T07:53:46;6.50;;;3.97;;
22320;SDS011;11328;53.928;18.522;2023-06-26T07:56:14;8.27;;;3.85;;
22320;SDS011;11328;53.928;18.522;2023-06-26T07:58:41;9.90;;;4.10;;
22320;SDS011;11328;53.928;18.522;2023-06-26T08:01:08;58.70;;;6.00;;
22320;SDS011;11328;53.928;18.522;2023-06-26T08:03:36;11.20;;;3.78;;
22320;SDS011;11328;53.928;18.522;2023-06-26T08:06:03;9.30;;;3.80;;
22320;SDS011;11328;53.928;18.522;2023-06-26T08:08:30;122.35;;;10.15;;
22320;SDS011;11328;53.928;18.522;2023-06-26T08:10:57;12.45;;;3.90;;
22320;SDS011;11328;53.928;18.522;2023-06-26T08:13:25;6.82;;;3.53;;
22320;SDS011;11328;53.928;18.522;2023-06-26T08:15:52;4.72;;;3.30;;
22320;SDS011;11328;53.928;18.522;2023-06-26T08:18:19;7.35;;;3.70;;
22320;SDS011;11328;53.928;18.522;2023-06-26T08:20:46;7.00;;;3.78;;
22320;SDS011;11328;53.928;18.522;2023-06-26T08:23:13;6.35;;;3.80;;
22320;SDS011;11328;53.928;18.522;2023-06-26T08:25:41;68.45;;;6.60;;
22320;SDS011;11328;53.928;18.522;2023-06-26T08:28:08;6.63;;;3.60;;
22320;SDS011;11328;53.928;18.522;2023-06-26T08:30:35;5.82;;;3.63;;
22320;SDS011;11328;53.928;18.522;2023-06-26T08:33:03;98.07;;;9.77;;
22320;SDS011;11328;53.928;18.522;2023-06-26T08:35:30;7.07;;;3.50;;
22320;SDS011;11328;53.928;18.522;2023-06-26T08:37:57;5.75;;;3.60;;
22320;SDS011;11328;53.928;18.522;2023-06-26T08:40:24;12.60;;;3.50;;
22320;SDS011;11328;53.928;18.522;2023-06-26T08:42:53;6.80;;;3.63;;
22320;SDS011;11328;53.928;18.522;2023-06-26T08:45:20;8.00;;;3.85;;
22320;SDS011;11328;53.928;18.522;2023-06-26T08:47:48;7.50;;;3.83;;
22320;SDS011;11328;53.928;18.522;2023-06-26T08:50:22;6.90;;;3.45;;
22320;SDS011;11328;53.928;18.522;2023-06-26T08:52:58;8.15;;;3.60;;
22320;SDS011;11328;53.928;18.522;2023-06-26T08:55:38;6.57;;;3.90;;
22320;SDS011;11328;53.928;18.522;2023-06-26T08:58:08;7.78;;;3.70;;
22320;SDS011;11328;53.928;18.522;2023-06-26T09:00:38;8.52;;;3.72;;
22320;SDS011;11328;53.928;18.522;2023-06-26T09:03:07;7.22;;;3.45;;
22320;SDS011;11328;53.928;18.522;2023-06-26T09:05:36;6.45;;;3.45;;
22320;SDS011;11328;53.928;18.522;2023-06-26T09:08:03;9.30;;;3.60;;
22320;SDS011;11328;53.928;18.522;2023-06-26T09:10:31;7.82;;;3.60;;
22320;SDS011;11328;53.928;18.522;2023-06-26T09:12:58;6.03;;;3.30;;
22320;SDS011;11328;53.928;18.522;2023-06-26T09:15:27;7.28;;;3.67;;
22320;SDS011;11328;53.928;18.522;2023-06-26T09:18:04;9.32;;;3.90;;
22320;SDS011;11328;53.928;18.522;2023-06-26T09:20:32;5.63;;;3.42;;
22320;SDS011;11328;53.928;18.522;2023-06-26T09:23:00;6.95;;;3.75;;
22320;SDS011;11328;53.928;18.522;2023-06-26T09:25:28;8.82;;;3.75;;
22320;SDS011;11328;53.928;18.522;2023-06-26T09:27:56;7.65;;;3.70;;
22320;SDS011;11328;53.928;18.522;2023-06-26T09:30:24;6.13;;;3.30;;
22320;SDS011;11328;53.928;18.522;2023-06-26T09:32:52;8.48;;;3.60;;
22320;SDS011;11328;53.928;18.522;2023-06-26T09:35:21;5.45;;;3.50;;
22320;SDS011;11328;53.928;18.522;2023-06-26T09:37:48;26.73;;;4.90;;
22320;SDS011;11328;53.928;18.522;2023-06-26T09:40:15;16.83;;;4.10;;
22320;SDS011;11328;53.928;18.522;2023-06-26T09:42:43;7.20;;;3.85;;
22320;SDS011;11328;53.928;18.522;2023-06-26T09:45:17;6.07;;;3.58;;
22320;SDS011;11328;53.928;18.522;2023-06-26T09:47:46;5.85;;;3.30;;
22320;SDS011;11328;53.928;18.522;2023-06-26T09:50:23;6.55;;;3.42;;
22320;SDS011;11328;53.928;18.522;2023-06-26T09:52:52;7.68;;;3.45;;
22320;SDS011;11328;53.928;18.522;2023-06-26T09:55:20;6.13;;;3.50;;
22320;SDS011;11328;53.928;18.522;2023-06-26T09:57:50;19.60;;;4.65;;
22320;SDS011;11328;53.928;18.522;2023-06-26T10:02:51;6.68;;;3.13;;
22320;SDS011;11328;53.928;18.522;2023-06-26T10:05:18;4.90;;;3.22;;
22320;SDS011;11328;53.928;18.522;2023-06-26T10:07:46;5.18;;;3.30;;
22320;SDS011;11328;53.928;18.522;2023-06-26T10:10:14;5.43;;;3.50;;
22320;SDS011;11328;53.928;18.522;2023-06-26T10:12:43;13.73;;;3.70;;
22320;SDS011;11328;53.928;18.522;2023-06-26T10:15:16;8.20;;;3.15;;
22320;SDS011;11328;53.928;18.522;2023-06-26T10:17:46;6.93;;;3.42;;
22320;SDS011;11328;53.928;18.522;2023-06-26T10:20:16;6.63;;;3.10;;
22320;SDS011;11328;53.928;18.522;2023-06-26T10:22:47;14.32;;;3.50;;
22320;SDS011;11328;53.928;18.522;2023-06-26T10:25:19;10.73;;;3.50;;
22320;SDS011;11328;53.928;18.522;2023-06-26T10:27:49;5.10;;;3.53;;
22320;SDS011;11328;53.928;18.522;2023-06-26T10:30:23;4.90;;;3.10;;
22320;SDS011;11328;53.928;18.522;2023-06-26T10:35:23;6.00;;;3.40;;
22320;SDS011;11328;53.928;18.522;2023-06-26T10:37:51;6.80;;;3.38;;
22320;SDS011;11328;53.928;18.522;2023-06-26T10:40:39;7.00;;;3.55;;
22320;SDS011;11328;53.928;18.522;2023-06-26T10:43:18;7.43;;;3.65;;
22320;SDS011;11328;53.928;18.522;2023-06-26T10:45:46;6.25;;;3.60;;
22320;SDS011;11328;53.928;18.522;2023-06-26T10:48:23;7.68;;;3.97;;
22320;SDS011;11328;53.928;18.522;2023-06-26T10:50:55;6.25;;;3.80;;
22320;SDS011;11328;53.928;18.522;2023-06-26T10:53:23;26.27;;;4.72;;
22320;SDS011;11328;53.928;18.522;2023-06-26T10:55:58;6.80;;;3.55;;
22320;SDS011;11328;53.928;18.522;2023-06-26T11:03:43;6.55;;;3.63;;
22320;SDS011;11328;53.928;18.522;2023-06-26T11:06:19;5.78;;;3.53;;
22320;SDS011;11328;53.928;18.522;2023-06-26T11:08:51;5.95;;;3.45;;
22320;SDS011;11328;53.928;18.522;2023-06-26T11:14:19;8.00;;;3.70;;
22320;SDS011;11328;53.928;18.522;2023-06-26T11:16:48;7.07;;;3.58;;
22320;SDS011;11328;53.928;18.522;2023-06-26T11:19:19;5.72;;;3.58;;
22320;SDS011;11328;53.928;18.522;2023-06-26T11:21:47;6.22;;;3.40;;
22320;SDS011;11328;53.928;18.522;2023-06-26T11:24:16;6.05;;;3.30;;
22320;SDS011;11328;53.928;18.522;2023-06-26T11:26:44;7.07;;;3.58;;
22320;SDS011;11328;53.928;18.522;2023-06-26T11:29:13;6.78;;;3.35;;
22320;SDS011;11328;53.928;18.522;2023-06-26T11:31:41;7.28;;;3.35;;
22320;SDS011;11328;53.928;18.522;2023-06-26T11:34:12;8.75;;;3.55;;
22320;SDS011;11328;53.928;18.522;2023-06-26T11:36:41;4.50;;;3.03;;
22320;SDS011;11328;53.928;18.522;2023-06-26T11:39:12;9.85;;;3.65;;
22320;SDS011;11328;53.928;18.522;2023-06-26T11:41:40;6.53;;;3.60;;
22320;SDS011;11328;53.928;18.522;2023-06-26T11:44:08;51.92;;;5.68;;
22320;SDS011;11328;53.928;18.522;2023-06-26T11:46:37;5.60;;;3.40;;
22320;SDS011;11328;53.928;18.522;2023-06-26T11:49:05;6.35;;;3.50;;
22320;SDS011;11328;53.928;18.522;2023-06-26T11:51:34;5.38;;;3.45;;
22320;SDS011;11328;53.928;18.522;2023-06-26T11:54:03;17.17;;;4.10;;
22320;SDS011;11328;53.928;18.522;2023-06-26T11:56:31;7.43;;;3.38;;
22320;SDS011;11328;53.928;18.522;2023-06-26T11:59:06;7.60;;;3.60;;
22320;SDS011;11328;53.928;18.522;2023-06-26T12:01:41;6.47;;;3.50;;
22320;SDS011;11328;53.928;18.522;2023-06-26T12:04:16;5.18;;;3.35;;
22320;SDS011;11328;53.928;18.522;2023-06-26T12:06:46;5.25;;;3.10;;
22320;SDS011;11328;53.928;18.522;2023-06-26T12:09:18;6.63;;;3.47;;
22320;SDS011;11328;53.928;18.522;2023-06-26T12:11:48;5.10;;;3.22;;
22320;SDS011;11328;53.928;18.522;2023-06-26T12:14:21;6.60;;;3.47;;
22320;SDS011;11328;53.928;18.522;2023-06-26T12:16:52;7.28;;;3.10;;
22320;SDS011;11328;53.928;18.522;2023-06-26T12:19:26;5.53;;;3.20;;
22320;SDS011;11328;53.928;18.522;2023-06-26T12:21:53;5.10;;;2.92;;
22320;SDS011;11328;53.928;18.522;2023-06-26T12:24:23;5.55;;;2.95;;
22320;SDS011;11328;53.928;18.522;2023-06-26T12:26:54;11.63;;;3.67;;
22320;SDS011;11328;53.928;18.522;2023-06-26T12:29:31;6.63;;;3.20;;
22320;SDS011;11328;53.928;18.522;2023-06-26T12:32:00;7.53;;;3.92;;
22320;SDS011;11328;53.928;18.522;2023-06-26T12:37:08;20.42;;;4.10;;
22320;SDS011;11328;53.928;18.522;2023-06-26T12:42:23;9.25;;;3.10;;
22320;SDS011;11328;53.928;18.522;2023-06-26T12:44:53;67.00;;;7.35;;
22320;SDS011;11328;53.928;18.522;2023-06-26T12:47:24;5.35;;;3.13;;
22320;SDS011;11328;53.928;18.522;2023-06-26T12:49:58;5.72;;;3.17;;
22320;SDS011;11328;53.928;18.522;2023-06-26T12:52:31;9.15;;;3.22;;
22320;SDS011;11328;53.928;18.522;2023-06-26T12:54:59;5.28;;;3.20;;
22320;SDS011;11328;53.928;18.522;2023-06-26T12:57:26;7.63;;;3.30;;
22320;SDS011;11328;53.928;18.522;2023-06-26T12:59:53;5.90;;;3.42;;
22320;SDS011;11328;53.928;18.522;2023-06-26T13:02:21;5.95;;;2.88;;
22320;SDS011;11328;53.928;18.522;2023-06-26T13:04:48;6.43;;;3.03;;
22320;SDS011;11328;53.928;18.522;2023-06-26T13:07:16;10.40;;;3.38;;
22320;SDS011;11328;53.928;18.522;2023-06-26T13:09:44;5.88;;;3.13;;
22320;SDS011;11328;53.928;18.522;2023-06-26T13:12:14;5.65;;;3.05;;
22320;SDS011;11328;53.928;18.522;2023-06-26T13:14:41;5.43;;;3.30;;
22320;SDS011;11328;53.928;18.522;2023-06-26T13:17:08;8.88;;;3.17;;
22320;SDS011;11328;53.928;18.522;2023-06-26T13:19:38;4.80;;;3.17;;
22320;SDS011;11328;53.928;18.522;2023-06-26T13:22:05;6.90;;;3.20;;
22320;SDS011;11328;53.928;18.522;2023-06-26T13:24:33;5.13;;;3.05;;
22320;SDS011;11328;53.928;18.522;2023-06-26T13:27:00;5.88;;;3.30;;
22320;SDS011;11328;53.928;18.522;2023-06-26T13:29:28;7.05;;;3.60;;
22320;SDS011;11328;53.928;18.522;2023-06-26T13:31:55;5.57;;;3.25;;
22320;SDS011;11328;53.928;18.522;2023-06-26T13:34:23;5.40;;;3.20;;
22320;SDS011;11328;53.928;18.522;2023-06-26T13:36:56;5.43;;;3.10;;
22320;SDS011;11328;53.928;18.522;2023-06-26T13:39:26;4.83;;;3.10;;
22320;SDS011;11328;53.928;18.522;2023-06-26T13:41:54;5.50;;;3.22;;
22320;SDS011;11328;53.928;18.522;2023-06-26T13:44:21;5.97;;;3.10;;
22320;SDS011;11328;53.928;18.522;2023-06-26T13:47:03;6.10;;;2.70;;
22320;SDS011;11328;53.928;18.522;2023-06-26T13:49:32;20.55;;;3.65;;
22320;SDS011;11328;53.928;18.522;2023-06-26T13:51:59;6.28;;;3.03;;
22320;SDS011;11328;53.928;18.522;2023-06-26T13:54:26;8.75;;;3.10;;
22320;SDS011;11328;53.928;18.522;2023-06-26T13:56:54;8.27;;;3.30;;
22320;SDS011;11328;53.928;18.522;2023-06-26T13:59:24;3.90;;;2.70;;
22320;SDS011;11328;53.928;18.522;2023-06-26T14:01:52;7.68;;;3.08;;
22320;SDS011;11328;53.928;18.522;2023-06-26T14:04:20;8.05;;;2.95;;
22320;SDS011;11328;53.928;18.522;2023-06-26T14:06:47;5.38;;;3.15;;
22320;SDS011;11328;53.928;18.522;2023-06-26T14:09:14;5.47;;;2.72;;
22320;SDS011;11328;53.928;18.522;2023-06-26T14:11:43;6.00;;;3.00;;
22320;SDS011;11328;53.928;18.522;2023-06-26T14:14:10;8.43;;;3.28;;
22320;SDS011;11328;53.928;18.522;2023-06-26T14:16:37;5.20;;;3.35;;
22320;SDS011;11328;53.928;18.522;2023-06-26T14:19:07;4.70;;;3.00;;
22320;SDS011;11328;53.928;18.522;2023-06-26T14:21:41;80.38;;;7.70;;
22320;SDS011;11328;53.928;18.522;2023-06-26T14:24:10;8.10;;;2.95;;
22320;SDS011;11328;53.928;18.522;2023-06-26T14:26:37;5.38;;;3.28;;
22320;SDS011;11328;53.928;18.522;2023-06-26T14:29:05;5.32;;;3.30;;
22320;SDS011;11328;53.928;18.522;2023-06-26T14:31:33;9.40;;;3.47;;
22320;SDS011;11328;53.928;18.522;2023-06-26T14:34:01;5.13;;;3.13;;
22320;SDS011;11328;53.928;18.522;2023-06-26T14:36:29;5.20;;;3.00;;
22320;SDS011;11328;53.928;18.522;2023-06-26T14:38:59;9.43;;;3.40;;
22320;SDS011;11328;53.928;18.522;2023-06-26T14:41:27;6.68;;;3.30;;
22320;SDS011;11328;53.928;18.522;2023-06-26T14:43:56;27.85;;;4.10;;
22320;SDS011;11328;53.928;18.522;2023-06-26T14:46:24;4.65;;;2.90;;
22320;SDS011;11328;53.928;18.522;2023-06-26T14:48:52;4.22;;;2.80;;
22320;SDS011;11328;53.928;18.522;2023-06-26T14:51:21;6.50;;;3.33;;
22320;SDS011;11328;53.928;18.522;2023-06-26T14:53:49;5.95;;;3.35;;
22320;SDS011;11328;53.928;18.522;2023-06-26T14:56:17;6.85;;;3.10;;
22320;SDS011;11328;53.928;18.522;2023-06-26T14:58:45;8.55;;;3.40;;
22320;SDS011;11328;53.928;18.522;2023-06-26T15:01:15;7.13;;;3.10;;
22320;SDS011;11328;53.928;18.522;2023-06-26T15:03:46;6.97;;;3.40;;